Time;durP1;ratioP1;P1;durP2;ratioP2;P2;SDS_P1;SDS_P2;PMS_P1;PMS_P2;Temp;Humidity;BMP_temperature;BMP_pressure;BME280_temperature;BME280_humidity;BME280_pressure;Samples;Min_cycle;Max_cycle;Signal;HPM_P1;HPM_P2
2022/07/12 00:01:49;;;;;;;6.07;5.88;;;;;;;-143.83;100.00;62900.06;5115005;28;20028;-62
2022/07/12 00:04:15;;;;;;;5.97;5.78;;;;;;;-143.83;100.00;62900.06;5115052;28;20028;-62
2022/07/12 00:06:40;;;;;;;6.25;6.00;;;;;;;-143.83;100.00;62900.06;5114524;28;20102;-61
2022/07/12 00:09:06;;;;;;;6.18;5.95;;;;;;;-143.83;100.00;62900.06;5115041;28;20027;-62
2022/07/12 00:11:33;;;;;;;6.10;5.90;;;;;;;-143.83;100.00;62900.06;5111229;28;20505;-62
2022/07/12 00:13:58;;;;;;;6.15;5.95;;;;;;;-143.83;100.00;62900.06;5106877;27;20091;-61
2022/07/12 00:16:24;;;;;;;6.40;6.10;;;;;;;-143.83;100.00;62900.06;5124783;27;20016;-62
2022/07/12 00:18:49;;;;;;;5.75;5.55;;;;;;;-143.83;100.00;62900.06;5101572;28;20468;-62
2022/07/12 00:21:15;;;;;;;6.43;6.13;;;;;;;-143.83;100.00;62900.06;5114809;28;20073;-62
2022/07/12 00:23:40;;;;;;;6.45;6.15;;;;;;;-143.83;100.00;62900.06;5114800;28;20403;-62
2022/07/12 00:26:06;;;;;;;6.03;5.82;;;;;;;-143.83;100.00;62900.06;5114669;28;20023;-62
2022/07/12 00:28:32;;;;;;;6.00;5.80;;;;;;;-143.83;100.00;62900.06;5114674;28;20019;-62
2022/07/12 00:30:58;;;;;;;5.80;5.60;;;;;;;-143.83;100.00;62900.06;5113717;28;20088;-62
2022/07/12 00:33:23;;;;;;;6.00;5.80;;;;;;;-143.83;100.00;62900.06;5114282;28;20051;-61
2022/07/12 00:35:49;;;;;;;6.40;6.10;;;;;;;-143.83;100.00;62900.06;5101771;28;20114;-63
2022/07/12 00:38:14;;;;;;;6.28;6.00;;;;;;;-143.83;100.00;62900.06;5114366;28;20110;-63
2022/07/12 00:40:40;;;;;;;6.28;6.00;;;;;;;-143.83;100.00;62900.06;5114265;28;20028;-63
2022/07/12 00:43:05;;;;;;;6.15;5.95;;;;;;;-143.83;100.00;62900.06;5114239;28;20055;-62
2022/07/12 00:45:31;;;;;;;6.43;6.13;;;;;;;-143.83;100.00;62900.06;5114283;28;20031;-62
2022/07/12 00:47:57;;;;;;;6.05;5.85;;;;;;;-143.83;100.00;62900.06;5101148;28;20031;-62
2022/07/12 00:50:23;;;;;;;7.50;7.20;;;;;;;-143.83;100.00;62900.06;5112157;28;20050;-63
2022/07/12 00:52:51;;;;;;;6.45;6.15;;;;;;;-143.83;100.00;62900.06;5097937;28;20023;-63
2022/07/12 00:55:20;;;;;;;6.30;6.00;;;;;;;-143.83;100.00;62900.06;5113861;28;20028;-62
2022/07/12 00:57:47;;;;;;;6.35;6.05;;;;;;;-143.83;100.00;62900.06;5110583;28;20039;-62
2022/07/12 01:00:15;;;;;;;6.18;5.95;;;;;;;-143.83;100.00;62900.06;5103881;28;20585;-62
2022/07/12 01:02:42;;;;;;;6.40;6.10;;;;;;;-143.83;100.00;62900.06;5113794;28;20030;-63
2022/07/12 01:05:08;;;;;;;6.35;6.05;;;;;;;-143.83;100.00;62900.06;5100536;28;20030;-63
2022/07/12 01:07:35;;;;;;;6.40;6.10;;;;;;;-143.83;100.00;62900.06;5101391;28;20372;-62
2022/07/12 01:10:01;;;;;;;6.35;6.05;;;;;;;-143.83;100.00;62900.06;5113734;28;20028;-63
2022/07/12 01:12:27;;;;;;;6.10;5.90;;;;;;;-143.83;100.00;62900.06;5113452;28;20023;-63
2022/07/12 01:14:53;;;;;;;6.32;6.03;;;;;;;-143.83;100.00;62900.06;5113915;28;20098;-63
2022/07/12 01:17:24;;;;;;;6.35;6.05;;;;;;;-143.83;100.00;62900.06;5112838;28;20031;-61
2022/07/12 01:19:52;;;;;;;6.50;6.20;;;;;;;-143.83;100.00;62900.06;5112260;28;20483;-62
2022/07/12 01:22:18;;;;;;;6.22;5.95;;;;;;;-143.83;100.00;62900.06;5112951;28;20114;-62
2022/07/12 01:24:45;;;;;;;6.30;6.00;;;;;;;-143.83;100.00;62900.06;5113795;27;20024;-63
2022/07/12 01:27:11;;;;;;;6.20;6.00;;;;;;;-143.83;100.00;62900.06;5113663;28;20024;-61
2022/07/12 01:29:37;;;;;;;6.07;5.88;;;;;;;-143.83;100.00;62900.06;5106313;28;20073;-63
2022/07/12 01:34:54;;;;;;;6.47;6.18;;;;;;;-143.83;100.00;62900.06;5113559;28;20119;-62
2022/07/12 01:37:21;;;;;;;6.30;6.00;;;;;;;-143.83;100.00;62900.06;5112602;28;20535;-62
2022/07/12 01:39:48;;;;;;;6.40;6.10;;;;;;;-143.83;100.00;62900.06;5117196;27;20062;-62
2022/07/12 01:42:14;;;;;;;6.32;6.03;;;;;;;-143.83;100.00;62900.06;5115716;27;20038;-62
2022/07/12 01:44:40;;;;;;;6.10;5.90;;;;;;;-143.83;100.00;62900.06;5112539;28;20099;-62
2022/07/12 01:47:06;;;;;;;6.13;5.93;;;;;;;-143.83;100.00;62900.06;5113112;28;20376;-63
2022/07/12 01:49:32;;;;;;;6.43;6.13;;;;;;;-143.83;100.00;62900.06;5108189;28;20022;-63
2022/07/12 01:51:58;;;;;;;6.50;6.20;;;;;;;-143.83;100.00;62900.06;5112833;28;20028;-62
2022/07/12 01:54:27;;;;;;;6.10;5.90;;;;;;;-143.83;100.00;62900.06;5095247;28;20034;-62
2022/07/12 01:56:54;;;;;;;6.47;6.18;;;;;;;-143.83;100.00;62900.06;5104465;28;20024;-62
2022/07/12 01:59:21;;;;;;;6.10;5.90;;;;;;;-143.83;100.00;62900.06;5113110;28;20107;-62
2022/07/12 02:01:46;;;;;;;6.07;5.88;;;;;;;-143.83;100.00;62900.06;5114885;28;20023;-62
2022/07/12 02:04:15;;;;;;;6.50;6.20;;;;;;;-143.83;100.00;62900.06;5115038;28;20019;-61
2022/07/12 02:06:41;;;;;;;6.40;6.10;;;;;;;-143.83;100.00;62900.06;5113281;28;20023;-61
2022/07/12 02:09:07;;;;;;;6.13;5.93;;;;;;;-143.83;100.00;62900.06;5112677;28;20030;-62
2022/07/12 02:11:32;;;;;;;6.40;6.10;;;;;;;-143.83;100.00;62900.06;5111654;28;20028;-63
2022/07/12 02:13:57;;;;;;;6.30;6.00;;;;;;;-143.83;100.00;62900.06;5112613;28;20111;-62
2022/07/12 02:16:23;;;;;;;6.95;6.65;;;;;;;-143.83;100.00;62900.06;5112292;28;20028;-63
2022/07/12 02:18:48;;;;;;;6.30;6.00;;;;;;;-143.83;100.00;62900.06;5112103;28;20080;-63
2022/07/12 02:21:14;;;;;;;6.00;5.80;;;;;;;-143.83;100.00;62900.06;5112463;28;20501;-62
2022/07/12 02:23:40;;;;;;;6.57;6.28;;;;;;;-143.83;100.00;62900.06;5112479;28;20016;-61
2022/07/12 02:26:05;;;;;;;6.30;6.00;;;;;;;-143.83;100.00;62900.06;5112277;28;20027;-61
2022/07/12 02:28:31;;;;;;;6.40;6.10;;;;;;;-143.83;100.00;62900.06;5111397;28;20533;-63
2022/07/12 02:30:57;;;;;;;6.10;5.90;;;;;;;-143.83;100.00;62900.06;5112282;28;20024;-62
2022/07/12 02:33:23;;;;;;;6.40;6.10;;;;;;;-143.83;100.00;62900.06;5112779;28;20027;-63
2022/07/12 02:35:48;;;;;;;6.32;6.03;;;;;;;-143.83;100.00;62900.06;5110870;28;20111;-61
2022/07/12 02:38:14;;;;;;;6.13;5.93;;;;;;;-143.83;100.00;62900.06;5112234;28;20039;-62
2022/07/12 02:40:54;;;;;;;6.10;5.90;;;;;;;-143.83;100.00;62900.06;5114133;27;20519;-62
2022/07/12 02:43:23;;;;;;;6.30;6.00;;;;;;;-143.83;100.00;62900.06;5112161;28;20020;-62
2022/07/12 02:45:49;;;;;;;6.30;6.00;;;;;;;-143.83;100.00;62900.06;5103603;28;20387;-62
2022/07/12 02:48:16;;;;;;;6.47;6.18;;;;;;;-143.83;100.00;62900.06;5112202;28;20372;-62
2022/07/12 02:50:42;;;;;;;6.00;5.80;;;;;;;-143.83;100.00;62900.06;5112331;28;20015;-63
2022/07/12 02:53:09;;;;;;;6.00;5.80;;;;;;;-143.83;100.00;62900.06;5110825;28;20483;-63
2022/07/12 02:55:35;;;;;;;6.53;6.22;;;;;;;-143.83;100.00;62900.06;5111482;28;20020;-62
2022/07/12 02:58:01;;;;;;;6.40;6.10;;;;;;;-143.83;100.00;62900.06;5116277;28;20058;-62
2022/07/12 03:00:27;;;;;;;6.18;5.97;;;;;;;-143.83;100.00;62900.06;5116255;28;20475;-63
2022/07/12 03:02:53;;;;;;;6.43;6.13;;;;;;;-143.83;100.00;62900.06;5115907;28;20031;-62
2022/07/12 03:05:19;;;;;;;6.25;6.00;;;;;;;-143.83;100.00;62900.06;5116582;28;20111;-63
2022/07/12 03:07:44;;;;;;;6.18;5.97;;;;;;;-143.83;100.00;62900.06;5116190;28;20364;-62
2022/07/12 03:10:10;;;;;;;6.60;6.30;;;;;;;-143.83;100.00;62900.06;5116294;28;20051;-63
2022/07/12 03:12:36;;;;;;;6.30;6.00;;;;;;;-143.83;100.00;62900.06;5116276;28;20034;-61
2022/07/12 03:15:02;;;;;;;6.68;6.38;;;;;;;-143.83;100.00;62900.06;5116055;28;20023;-63
2022/07/12 03:17:28;;;;;;;6.70;6.40;;;;;;;-143.83;100.00;62900.06;5116035;28;20483;-63
2022/07/12 03:19:53;;;;;;;6.65;6.35;;;;;;;-143.83;100.00;62900.06;5110809;28;20024;-61
2022/07/12 03:22:18;;;;;;;6.60;6.30;;;;;;;-143.83;100.00;62900.06;5115699;28;20380;-63
2022/07/12 03:24:44;;;;;;;6.90;6.60;;;;;;;-143.83;100.00;62900.06;5115769;28;20047;-63
2022/07/12 03:27:09;;;;;;;6.72;6.43;;;;;;;-143.83;100.00;62900.06;5115654;27;20031;-63
2022/07/12 03:29:36;;;;;;;6.70;6.40;;;;;;;-143.83;100.00;62900.06;5115710;28;20076;-62
2022/07/12 03:32:02;;;;;;;6.70;6.40;;;;;;;-143.83;100.00;62900.06;5115931;28;20019;-62
2022/07/12 03:34:28;;;;;;;6.60;6.30;;;;;;;-143.83;100.00;62900.06;5115917;28;20058;-64
2022/07/12 03:36:53;;;;;;;6.95;6.65;;;;;;;-143.83;100.00;62900.06;5110530;27;20510;-63
2022/07/12 03:39:19;;;;;;;6.80;6.50;;;;;;;-143.83;100.00;62900.06;5109975;28;20470;-63
2022/07/12 03:41:44;;;;;;;6.60;6.30;;;;;;;-143.83;100.00;62900.06;5104990;28;20019;-63
2022/07/12 03:44:10;;;;;;;6.70;6.40;;;;;;;-143.83;100.00;62900.06;5115590;28;20180;-63
2022/07/12 03:46:35;;;;;;;6.80;6.50;;;;;;;-143.83;100.00;62900.06;5115426;28;20024;-63
2022/07/12 03:49:01;;;;;;;6.85;6.55;;;;;;;-143.83;100.00;62900.06;5127522;27;20505;-63
2022/07/12 03:51:26;;;;;;;6.65;6.35;;;;;;;-143.83;100.00;62900.06;5114768;28;20483;-63
2022/07/12 03:53:52;;;;;;;6.70;6.40;;;;;;;-143.83;100.00;62900.06;5114280;28;20483;-63
2022/07/12 03:59:02;;;;;;;;;;;;;;;-143.83;100.00;62900.06;5115825;28;20144;-64
2022/07/12 04:01:28;;;;;;;7.05;6.75;;;;;;;-143.83;100.00;62900.06;5114477;28;19907;-62
2022/07/12 04:03:55;;;;;;;7.68;7.38;;;;;;;-143.83;100.00;62900.06;5114751;28;20039;-61
2022/07/12 04:06:21;;;;;;;7.10;6.80;;;;;;;-143.83;100.00;62900.06;5114069;28;20030;-62
2022/07/12 04:08:46;;;;;;;7.10;6.80;;;;;;;-143.83;100.00;62900.06;5105517;28;20024;-63
2022/07/12 04:11:11;;;;;;;6.97;6.68;;;;;;;-143.83;100.00;62900.06;5099016;28;20062;-61
2022/07/12 04:13:37;;;;;;;7.00;6.70;;;;;;;-143.83;100.00;62900.06;5112436;28;20106;-61
2022/07/12 04:16:05;;;;;;;7.13;6.82;;;;;;;-143.83;100.00;62900.06;5114500;28;20028;-62
2022/07/12 04:18:31;;;;;;;7.10;6.80;;;;;;;-143.83;100.00;62900.06;5114441;28;20394;-62
2022/07/12 04:20:56;;;;;;;7.03;6.72;;;;;;;-143.83;100.00;62900.06;5114558;27;20026;-63
2022/07/12 04:23:22;;;;;;;7.10;6.80;;;;;;;-143.83;100.00;62900.06;5114494;28;20034;-63
2022/07/12 04:25:47;;;;;;;6.97;6.68;;;;;;;-143.83;100.00;62900.06;5114269;28;20024;-63
2022/07/12 04:28:13;;;;;;;6.90;6.60;;;;;;;-143.83;100.00;62900.06;5113924;28;20028;-61
2022/07/12 04:30:38;;;;;;;7.15;6.85;;;;;;;-143.83;100.00;62900.06;5114449;28;20454;-63
2022/07/12 04:33:05;;;;;;;7.00;6.70;;;;;;;-143.83;100.00;62900.06;5123715;27;20031;-62
2022/07/12 04:35:31;;;;;;;7.20;6.90;;;;;;;-143.83;100.00;62900.06;5129752;27;20059;-63
2022/07/12 04:37:56;;;;;;;7.10;6.80;;;;;;;-143.83;100.00;62900.06;5108330;28;20054;-63
2022/07/12 04:40:22;;;;;;;7.15;6.85;;;;;;;-143.83;100.00;62900.06;5113784;28;20027;-63
2022/07/12 04:42:47;;;;;;;7.30;7.00;;;;;;;-143.83;100.00;62900.06;5112952;28;20107;-63
2022/07/12 04:45:13;;;;;;;7.10;6.80;;;;;;;-143.83;100.00;62900.06;5105030;28;20122;-62
2022/07/12 04:47:38;;;;;;;7.07;6.78;;;;;;;-143.83;100.00;62900.06;5114188;28;20031;-63
2022/07/12 04:50:08;;;;;;;7.05;6.75;;;;;;;-143.83;100.00;62900.06;5114294;28;20059;-63
2022/07/12 04:52:34;;;;;;;7.25;6.95;;;;;;;-143.83;100.00;62900.06;5113904;28;20020;-62
2022/07/12 04:55:00;;;;;;;7.20;6.90;;;;;;;-143.83;100.00;62900.06;5113780;28;20023;-62
2022/07/12 04:57:26;;;;;;;7.03;6.72;;;;;;;-143.83;100.00;62900.06;5102857;27;20068;-63
2022/07/12 04:59:51;;;;;;;7.25;6.95;;;;;;;-143.83;100.00;62900.06;5113693;28;20027;-63
2022/07/12 05:02:17;;;;;;;7.20;6.90;;;;;;;-143.83;100.00;62900.06;5110692;27;20149;-63
2022/07/12 05:04:42;;;;;;;7.05;6.75;;;;;;;-143.83;100.00;62900.06;5113590;28;20050;-63
2022/07/12 05:07:09;;;;;;;7.13;6.82;;;;;;;-143.83;100.00;62900.06;5113653;28;20039;-63
2022/07/12 05:09:34;;;;;;;7.40;7.10;;;;;;;-143.83;100.00;62900.06;5113657;28;20023;-64
2022/07/12 05:12:00;;;;;;;7.30;7.00;;;;;;;-143.83;100.00;62900.06;5113031;28;20123;-63
2022/07/12 05:14:26;;;;;;;7.30;7.00;;;;;;;-143.83;100.00;62900.06;5113402;28;20389;-63
2022/07/12 05:16:51;;;;;;;7.30;7.00;;;;;;;-143.83;100.00;62900.06;5104717;28;20032;-64
2022/07/12 05:19:17;;;;;;;7.18;6.88;;;;;;;-143.83;100.00;62900.06;5103325;27;20032;-64
2022/07/12 05:21:43;;;;;;;7.20;6.90;;;;;;;-143.83;100.00;62900.06;5113116;28;20024;-64
2022/07/12 05:24:08;;;;;;;7.40;7.10;;;;;;;-143.83;100.00;62900.06;5110416;28;20094;-63
2022/07/12 05:26:34;;;;;;;7.20;6.90;;;;;;;-143.83;100.00;62900.06;5113434;28;20031;-63
2022/07/12 05:29:00;;;;;;;7.15;6.85;;;;;;;-143.83;100.00;62900.06;5121441;27;20023;-63
2022/07/12 05:31:26;;;;;;;7.30;7.00;;;;;;;-143.83;100.00;62900.06;5114906;27;20049;-65
2022/07/12 05:33:52;;;;;;;7.47;7.18;;;;;;;-143.83;100.00;62900.06;5099038;28;20032;-64
2022/07/12 05:36:18;;;;;;;7.20;6.90;;;;;;;-143.83;100.00;62900.06;5111833;27;20455;-64
2022/07/12 05:38:44;;;;;;;7.22;6.93;;;;;;;-143.83;100.00;62900.06;5132266;27;20155;-63
2022/07/12 05:41:09;;;;;;;7.30;7.00;;;;;;;-143.83;100.00;62900.06;5111759;27;20107;-63
2022/07/12 05:43:35;;;;;;;7.28;6.97;;;;;;;-143.83;100.00;62900.06;5109157;28;20016;-65
2022/07/12 05:46:01;;;;;;;7.20;6.90;;;;;;;-143.83;100.00;62900.06;5113249;28;20051;-63
2022/07/12 05:48:26;;;;;;;7.20;6.90;;;;;;;-143.83;100.00;62900.06;5098864;28;20114;-62
2022/07/12 05:50:52;;;;;;;7.15;6.85;;;;;;;-143.83;100.00;62900.06;5112839;28;20027;-63
2022/07/12 05:53:24;;;;;;;7.30;7.00;;;;;;;-143.83;100.00;62900.06;5102837;27;20027;-63
2022/07/12 05:55:51;;;;;;;7.20;6.90;;;;;;;-143.83;100.00;62900.06;5106779;28;20081;-63
2022/07/12 05:58:17;;;;;;;7.20;6.90;;;;;;;-143.83;100.00;62900.06;5094048;28;20063;-63
2022/07/12 06:00:43;;;;;;;7.15;6.85;;;;;;;-143.83;100.00;62900.06;5112616;28;20455;-64
2022/07/12 06:03:10;;;;;;;7.22;6.93;;;;;;;-143.83;100.00;62900.06;5112602;28;20447;-64
2022/07/12 06:05:35;;;;;;;7.40;7.10;;;;;;;-143.83;100.00;62900.06;5112726;28;20027;-63
2022/07/12 06:08:01;;;;;;;7.43;7.13;;;;;;;-143.83;100.00;62900.06;5108982;28;20030;-62
2022/07/12 06:10:27;;;;;;;7.40;7.10;;;;;;;-143.83;100.00;62900.06;5111805;27;20023;-63
2022/07/12 06:12:53;;;;;;;7.32;7.03;;;;;;;-143.83;100.00;62900.06;5116284;27;20028;-64
2022/07/12 06:15:18;;;;;;;7.22;6.93;;;;;;;-143.83;100.00;62900.06;5104553;28;20032;-64
2022/07/12 06:17:44;;;;;;;7.18;6.88;;;;;;;-143.83;100.00;62900.06;5106478;28;20023;-65
2022/07/12 06:20:10;;;;;;;7.22;6.93;;;;;;;-143.83;100.00;62900.06;5105579;28;20027;-63
2022/07/12 06:22:35;;;;;;;7.38;7.07;;;;;;;-143.83;100.00;62900.06;5120994;27;20035;-61
2022/07/12 06:25:01;;;;;;;7.40;7.10;;;;;;;-143.83;100.00;62900.06;5105914;28;20402;-61
2022/07/12 06:27:26;;;;;;;7.45;7.15;;;;;;;-143.83;100.00;62900.06;5110481;27;20078;-63
2022/07/12 06:29:52;;;;;;;7.15;6.85;;;;;;;-143.83;100.00;62900.06;5104183;27;20020;-61
2022/07/12 06:32:18;;;;;;;7.43;7.13;;;;;;;-143.83;100.00;62900.06;5082193;28;20092;-62
2022/07/12 06:34:43;;;;;;;7.35;7.05;;;;;;;-143.83;100.00;62900.06;5101831;28;20108;-62
2022/07/12 06:37:09;;;;;;;7.28;6.97;;;;;;;-143.83;100.00;62900.06;5105569;28;20054;-62
2022/07/12 06:39:35;;;;;;;7.15;6.85;;;;;;;-143.83;100.00;62900.06;5108375;28;20043;-61
2022/07/12 06:42:03;;;;;;;7.30;7.00;;;;;;;-143.83;100.00;62900.06;5103784;28;20146;-63
2022/07/12 06:44:32;;;;;;;7.43;7.13;;;;;;;-143.83;100.00;62900.06;5097853;28;20042;-62
2022/07/12 06:46:58;;;;;;;7.15;6.85;;;;;;;-143.83;100.00;62900.06;5095792;28;20032;-63
2022/07/12 06:49:24;;;;;;;7.15;6.85;;;;;;;-143.83;100.00;62900.06;5105567;28;20514;-62
2022/07/12 06:51:50;;;;;;;7.25;6.95;;;;;;;-143.83;100.00;62900.06;5107997;28;20494;-61
2022/07/12 06:54:15;;;;;;;7.20;6.90;;;;;;;-143.83;100.00;62900.06;5106909;28;20067;-62
2022/07/12 06:56:41;;;;;;;7.20;6.90;;;;;;;-143.83;100.00;62900.06;5098549;28;20039;-64
2022/07/12 06:59:10;;;;;;;7.20;6.90;;;;;;;-143.83;100.00;62900.06;5105772;28;20376;-62
2022/07/12 07:01:39;;;;;;;7.40;7.10;;;;;;;-143.83;100.00;62900.06;5101864;28;20059;-62
2022/07/12 07:04:05;;;;;;;7.30;7.00;;;;;;;-143.83;100.00;62900.06;5109671;28;20153;-63
2022/07/12 07:06:31;;;;;;;7.07;6.78;;;;;;;-143.83;100.00;62900.06;5115079;27;20115;-62
2022/07/12 07:08:57;;;;;;;7.10;6.80;;;;;;;-143.83;100.00;62900.06;5111525;27;20042;-63
2022/07/12 07:11:22;;;;;;;7.30;7.00;;;;;;;-143.83;100.00;62900.06;5105425;28;20023;-63
2022/07/12 07:13:48;;;;;;;7.10;6.80;;;;;;;-143.83;100.00;62900.06;5105268;28;20042;-64
2022/07/12 07:16:13;;;;;;;7.05;6.75;;;;;;;-143.83;100.00;62900.06;5103526;28;20397;-62
2022/07/12 07:18:40;;;;;;;7.20;6.90;;;;;;;-143.83;100.00;62900.06;5104627;28;20085;-62
2022/07/12 07:21:06;;;;;;;7.00;6.70;;;;;;;-143.83;100.00;62900.06;5114961;28;20778;-63
2022/07/12 07:23:32;;;;;;;7.20;6.90;;;;;;;-143.83;100.00;62900.06;5112309;27;20027;-64
2022/07/12 07:25:58;;;;;;;7.25;6.95;;;;;;;-143.83;100.00;62900.06;5104307;28;20122;-64
2022/07/12 07:28:24;;;;;;;6.93;6.63;;;;;;;-143.83;100.00;62900.06;5101031;27;20109;-63
2022/07/12 07:30:52;;;;;;;7.20;6.90;;;;;;;-143.83;100.00;62900.06;5105244;28;20031;-64
2022/07/12 07:33:21;;;;;;;7.30;7.00;;;;;;;-143.83;100.00;62900.06;5100680;28;20032;-63
2022/07/12 07:35:48;;;;;;;7.30;7.00;;;;;;;-143.83;100.00;62900.06;5108362;28;20031;-63
2022/07/12 07:38:15;;;;;;;7.32;7.03;;;;;;;-143.83;100.00;62900.06;5101111;28;20515;-64
2022/07/12 07:40:40;;;;;;;7.00;6.70;;;;;;;-143.83;100.00;62900.06;5093093;28;20055;-62
2022/07/12 07:43:05;;;;;;;7.28;6.97;;;;;;;-143.83;100.00;62900.06;5101701;28;20060;-63
2022/07/12 07:45:31;;;;;;;7.20;6.90;;;;;;;-143.83;100.00;62900.06;5110561;28;20019;-63
2022/07/12 07:47:57;;;;;;;7.57;7.28;;;;;;;-143.83;100.00;62900.06;5102269;28;20024;-64
2022/07/12 07:50:22;;;;;;;7.38;7.07;;;;;;;-143.83;100.00;62900.06;5108102;28;20077;-62
2022/07/12 07:52:49;;;;;;;7.45;7.15;;;;;;;-143.83;100.00;62900.06;5107313;27;20391;-62
2022/07/12 07:55:15;;;;;;;7.53;7.22;;;;;;;-143.83;100.00;62900.06;5103280;27;20122;-63
2022/07/12 07:57:42;;;;;;;7.40;7.10;;;;;;;-143.83;100.00;62900.06;5106877;28;20111;-61
2022/07/12 08:00:08;;;;;;;7.70;7.40;;;;;;;-143.83;100.00;62900.06;5109765;28;20031;-63
2022/07/12 08:02:34;;;;;;;7.20;6.90;;;;;;;-143.83;100.00;62900.06;5110425;28;20106;-70
2022/07/12 08:04:59;;;;;;;7.53;7.22;;;;;;;-143.83;100.00;62900.06;5110501;28;20113;-64
2022/07/12 08:07:25;;;;;;;7.38;7.07;;;;;;;-143.83;100.00;62900.06;5108047;28;20493;-63
2022/07/12 08:09:50;;;;;;;7.30;7.00;;;;;;;-143.83;100.00;62900.06;5115589;27;20026;-63
2022/07/12 08:12:16;;;;;;;7.40;7.10;;;;;;;-143.83;100.00;62900.06;5114770;27;20039;-62
2022/07/12 08:14:42;;;;;;;7.25;6.95;;;;;;;-143.83;100.00;62900.06;5104683;28;20042;-64
2022/07/12 08:17:07;;;;;;;7.50;7.20;;;;;;;-143.83;100.00;62900.06;5100678;27;20089;-63
2022/07/12 08:19:33;;;;;;;7.45;7.15;;;;;;;-143.83;100.00;62900.06;5097331;27;20934;-62
2022/07/12 08:22:00;;;;;;;7.63;7.32;;;;;;;-143.83;100.00;62900.06;5103998;27;20036;-62
2022/07/12 08:24:27;;;;;;;7.60;7.30;;;;;;;-143.83;100.00;62900.06;5112789;27;20055;-63
2022/07/12 08:26:52;;;;;;;7.20;6.90;;;;;;;-143.83;100.00;62900.06;5114450;27;20031;-62
2022/07/12 08:29:18;;;;;;;7.57;7.28;;;;;;;-143.83;100.00;62900.06;5114636;27;20046;-63
2022/07/12 08:31:44;;;;;;;7.22;6.93;;;;;;;-143.83;100.00;62900.06;5108155;27;20032;-63
2022/07/12 08:34:09;;;;;;;7.20;6.90;;;;;;;-143.83;100.00;62900.06;5112087;27;20023;-64
2022/07/12 08:36:35;;;;;;;7.30;7.00;;;;;;;-143.83;100.00;62900.06;5104791;27;20107;-62
2022/07/12 08:39:00;;;;;;;7.38;7.07;;;;;;;-143.83;100.00;62900.06;5102611;27;20340;-63
2022/07/12 08:41:26;;;;;;;7.30;7.00;;;;;;;-143.83;100.00;62900.06;5113826;27;20445;-63
2022/07/12 08:43:51;;;;;;;7.20;6.90;;;;;;;-143.83;100.00;62900.06;5105289;28;20028;-63
2022/07/12 08:46:17;;;;;;;7.20;6.90;;;;;;;-143.83;100.00;62900.06;5108374;27;20226;-62
2022/07/12 08:48:43;;;;;;;7.43;7.13;;;;;;;-143.83;100.00;62900.06;5110099;27;20089;-63
2022/07/12 08:51:19;;;;;;;7.43;7.13;;;;;;;-143.83;100.00;62900.06;5108539;28;20023;-66
2022/07/12 08:53:45;;;;;;;7.47;7.18;;;;;;;-143.83;100.00;62900.06;5103245;28;20033;-63
2022/07/12 08:56:31;;;;;;;7.50;7.20;;;;;;;-143.83;100.00;62900.06;5101581;27;20028;-63
2022/07/12 08:59:14;;;;;;;7.30;7.00;;;;;;;-143.83;100.00;62900.06;5109337;27;20110;-63
2022/07/12 09:01:44;;;;;;;7.40;7.10;;;;;;;-143.83;100.00;62900.06;5099885;27;20076;-63
2022/07/12 09:04:14;;;;;;;7.05;6.75;;;;;;;-143.83;100.00;62900.06;5110157;27;20031;-63
2022/07/12 09:06:40;;;;;;;7.63;7.32;;;;;;;-143.83;100.00;62900.06;5108344;27;20057;-63
2022/07/12 09:09:08;;;;;;;7.85;7.55;;;;;;;-143.83;100.00;62900.06;5103542;27;20381;-63
2022/07/12 09:11:35;;;;;;;7.82;7.53;;;;;;;-143.83;100.00;62900.06;5109728;27;20027;-61
2022/07/12 09:14:02;;;;;;;7.20;6.90;;;;;;;-143.83;100.00;62900.06;5119293;27;20035;-61
2022/07/12 09:16:28;;;;;;;7.28;6.97;;;;;;;-143.83;100.00;62900.06;5110420;27;20039;-62
2022/07/12 09:19:16;;;;;;;7.13;6.82;;;;;;;-143.83;100.00;62900.06;5114644;27;20494;-61
2022/07/12 09:21:47;;;;;;;7.38;7.07;;;;;;;-143.83;100.00;62900.06;5099281;28;20061;-60
2022/07/12 09:24:13;;;;;;;7.28;6.97;;;;;;;-143.83;100.00;62900.06;5104918;27;20775;-62
2022/07/12 09:26:38;;;;;;;7.03;6.72;;;;;;;-143.83;100.00;62900.06;5104243;27;20032;-62
2022/07/12 09:29:11;;;;;;;7.35;7.05;;;;;;;-143.83;100.00;62900.06;5108114;28;20031;-60
2022/07/12 09:37:21;;;;;;;;;;;;;;;-143.83;100.00;62900.06;5111529;27;20035;-63
2022/07/12 09:39:48;;;;;;;6.75;6.45;;;;;;;-143.83;100.00;62900.06;5105938;28;19920;-64
2022/07/12 09:42:14;;;;;;;7.13;6.82;;;;;;;-143.83;100.00;62900.06;5093534;28;20434;-63
2022/07/12 09:44:42;;;;;;;7.45;7.15;;;;;;;-143.83;100.00;62900.06;5099973;27;20030;-64
2022/07/12 09:47:13;;;;;;;7.03;6.72;;;;;;;-143.83;100.00;62900.06;5108500;27;20031;-64
2022/07/12 09:49:40;;;;;;;7.25;6.95;;;;;;;-143.83;100.00;62900.06;5101410;28;20027;-64
2022/07/12 09:52:12;;;;;;;7.50;7.20;;;;;;;-143.83;100.00;62900.06;5108088;28;20035;-63
2022/07/12 09:54:42;;;;;;;7.65;7.35;;;;;;;-143.83;100.00;62900.06;5099966;28;20110;-63
2022/07/12 09:57:19;;;;;;;7.20;6.90;;;;;;;-143.83;100.00;62900.06;5094097;28;20027;-63
2022/07/12 09:59:47;;;;;;;7.15;6.85;;;;;;;-143.83;100.00;62900.06;5104512;28;20027;-64
2022/07/12 10:02:15;;;;;;;7.32;7.03;;;;;;;-143.83;100.00;62900.06;5094043;28;20028;-64
2022/07/12 10:04:42;;;;;;;7.22;6.93;;;;;;;-143.83;100.00;62900.06;5107965;28;20059;-64
2022/07/12 10:07:13;;;;;;;7.10;6.80;;;;;;;-143.83;100.00;62900.06;5093286;28;20023;-64
2022/07/12 10:09:40;;;;;;;7.40;7.10;;;;;;;-143.83;100.00;62900.06;5102136;27;20038;-64
2022/07/12 10:12:08;;;;;;;7.22;6.93;;;;;;;-143.83;100.00;62900.06;5112144;27;20045;-64
2022/07/12 10:14:33;;;;;;;7.18;6.88;;;;;;;-143.83;100.00;62900.06;5107035;28;20019;-63
2022/07/12 10:16:59;;;;;;;7.38;7.07;;;;;;;-143.83;100.00;62900.06;5096903;28;20046;-64
2022/07/12 10:19:31;;;;;;;7.22;6.93;;;;;;;-143.83;100.00;62900.06;5094226;28;20032;-62
2022/07/12 10:21:59;;;;;;;7.18;6.88;;;;;;;-143.83;100.00;62900.06;5100164;28;20502;-64
2022/07/12 10:24:30;;;;;;;7.57;7.28;;;;;;;-143.83;100.00;62900.06;5104548;28;20038;-64
2022/07/12 10:26:57;;;;;;;7.10;6.80;;;;;;;-143.83;100.00;62900.06;5107708;28;20431;-62
2022/07/12 10:29:22;;;;;;;6.80;6.50;;;;;;;-143.83;100.00;62900.06;5097623;28;20061;-61
2022/07/12 10:31:49;;;;;;;6.80;6.50;;;;;;;-143.83;100.00;62900.06;5099013;27;20414;-62
2022/07/12 10:34:20;;;;;;;6.88;6.57;;;;;;;-143.83;100.00;62900.06;5105371;28;20038;-63
2022/07/12 10:36:54;;;;;;;6.75;6.45;;;;;;;-143.83;100.00;62900.06;5099203;28;20706;-62
2022/07/12 10:39:25;;;;;;;6.80;6.50;;;;;;;-143.83;100.00;62900.06;5118751;28;20047;-63
2022/07/12 10:42:17;;;;;;;7.00;6.70;;;;;;;-143.83;100.00;62900.06;5102969;27;20016;-62
2022/07/12 10:44:47;;;;;;;6.90;6.60;;;;;;;-143.83;100.00;62900.06;5105240;27;20034;-62
2022/07/12 10:47:16;;;;;;;7.15;6.85;;;;;;;-143.83;100.00;62900.06;5108086;27;20023;-62
2022/07/12 10:49:50;;;;;;;6.70;6.40;;;;;;;-143.83;100.00;62900.06;5113008;28;20019;-61
2022/07/12 10:52:16;;;;;;;;;;;;;;;-143.83;100.00;62900.06;5113106;28;20116;-62
2022/07/12 10:54:50;;;;;;;7.00;6.70;;;;;;;-143.83;100.00;62900.06;5108345;28;19908;-61
2022/07/12 10:57:37;;;;;;;7.00;6.70;;;;;;;-143.83;100.00;62900.06;5102756;28;20359;-63
2022/07/12 11:00:03;;;;;;;7.50;7.20;;;;;;;-143.83;100.00;62900.06;5090049;28;20489;-65
2022/07/12 11:02:30;;;;;;;7.10;6.80;;;;;;;-143.83;100.00;62900.06;5103159;28;20059;-63
2022/07/12 11:04:56;;;;;;;6.80;6.50;;;;;;;-143.83;100.00;62900.06;5100305;28;20024;-66
2022/07/12 11:07:23;;;;;;;7.00;6.70;;;;;;;-143.83;100.00;62900.06;5117868;28;20034;-65
2022/07/12 11:09:55;;;;;;;7.20;6.90;;;;;;;-143.83;100.00;62900.06;5106294;28;20047;-64
2022/07/12 11:12:26;;;;;;;7.40;7.10;;;;;;;-143.83;100.00;62900.06;5100449;28;20024;-64
2022/07/12 11:14:52;;;;;;;7.32;7.03;;;;;;;-143.83;100.00;62900.06;5110432;28;20027;-63
2022/07/12 11:17:24;;;;;;;6.90;6.60;;;;;;;-143.83;100.00;62900.06;5119197;27;20482;-65
2022/07/12 11:20:11;;;;;;;7.00;6.70;;;;;;;-143.83;100.00;62900.06;5109592;27;20110;-66